Black Lake, Canada
Current Conditions -  °F | °C
As of 7:37 AM on Thursday 23 Oct 2014 (Local Time) from CYSC Reporting Station
Light Rain Light Rain  
Wind Chill: 37°   Ceiling: 1600
Heat Index: 43°   Visibility: 9mi
Dew Point: 39°   Wind: 12mph
Humidity: 87%   Direction: 50°NE
Pressure: 30.03"   Gusts: 20mph
Location:  46.03°N, 71.37°W
Report Text: CYSC 231137Z AUTO 05010G17KT 9SM -RA OVC016 06/04 A3003 RMK SLP175
Loading
Personal Weather Stations






























Interactive Weather Map
Tropical Storm Tracking
New forecast layout! Learn more

10-Day Weather Forecast

Advertisements
Track Severe Weather on mobile